createdAt,value
2023-05-19T00:00:02.265Z,11.30
2023-05-19T00:02:39.842Z,17.85
2023-05-19T00:05:08.020Z,13.80
2023-05-19T00:07:38.724Z,11.43
2023-05-19T00:10:06.998Z,10.32
2023-05-19T00:12:34.979Z,10.43
2023-05-19T00:15:02.779Z,12.13
2023-05-19T00:17:34.665Z,9.77
2023-05-19T00:20:01.981Z,7.68
2023-05-19T00:22:31.216Z,7.20
2023-05-19T00:24:58.530Z,7.18
2023-05-19T00:27:26.372Z,8.10
2023-05-19T00:29:53.996Z,5.97
2023-05-19T00:32:21.357Z,6.43
2023-05-19T00:34:49.690Z,5.72
2023-05-19T00:37:17.994Z,6.63
2023-05-19T00:39:46.684Z,5.88
2023-05-19T00:42:14.851Z,5.07
2023-05-19T00:44:42.528Z,5.35
2023-05-19T00:47:10.016Z,6.35
2023-05-19T00:49:38.035Z,6.07
2023-05-19T00:52:06.982Z,7.28
2023-05-19T00:54:35.107Z,4.93
2023-05-19T00:57:04.420Z,4.30
2023-05-19T00:59:31.998Z,8.27
2023-05-19T01:01:59.549Z,5.03
2023-05-19T01:04:27.122Z,4.95
2023-05-19T01:06:55.208Z,5.22
2023-05-19T01:09:23.299Z,4.88
2023-05-19T01:11:51.024Z,4.45
2023-05-19T01:14:19.285Z,4.10
2023-05-19T01:17:05.673Z,3.60
2023-05-19T01:19:46.870Z,3.80
2023-05-19T01:22:23.199Z,3.15
2023-05-19T01:25:02.974Z,6.10
2023-05-19T01:27:42.173Z,2.60
2023-05-19T01:30:23.512Z,2.08
2023-05-19T01:32:53.655Z,3.70
2023-05-19T01:35:26.337Z,3.10
2023-05-19T01:37:58.976Z,3.15
2023-05-19T01:40:28.386Z,5.82
2023-05-19T01:42:58.081Z,2.25
2023-05-19T01:45:28.641Z,2.88
2023-05-19T01:47:59.382Z,1.80
2023-05-19T01:50:27.373Z,3.25
2023-05-19T01:52:55.411Z,3.28
2023-05-19T01:55:23.948Z,1.50
2023-05-19T01:58:15.238Z,2.00
2023-05-19T02:01:07.225Z,2.00
2023-05-19T02:03:40.440Z,2.53
2023-05-19T02:06:29.576Z,3.90
2023-05-19T02:09:04.406Z,2.10
2023-05-19T02:11:53.002Z,2.05
2023-05-19T02:14:25.160Z,5.80
2023-05-19T02:16:53.139Z,2.33
2023-05-19T02:19:26.621Z,3.00
2023-05-19T02:21:56.552Z,3.63
2023-05-19T02:24:24.259Z,4.38
2023-05-19T02:26:53.377Z,2.10
2023-05-19T02:29:21.573Z,3.97
2023-05-19T02:31:51.295Z,3.33
2023-05-19T02:34:19.861Z,2.67
2023-05-19T02:36:49.979Z,2.35
2023-05-19T02:39:17.797Z,2.60
2023-05-19T02:41:45.165Z,3.55
2023-05-19T02:44:12.617Z,5.53
2023-05-19T02:46:40.009Z,3.55
2023-05-19T02:49:07.612Z,5.88
2023-05-19T02:51:35.156Z,5.82
2023-05-19T02:54:02.543Z,4.28
2023-05-19T02:56:30.032Z,5.13
2023-05-19T02:58:58.701Z,3.97
2023-05-19T03:01:26.450Z,5.93
2023-05-19T03:03:53.769Z,4.35
2023-05-19T03:06:23.583Z,4.93
2023-05-19T03:08:51.335Z,6.63
2023-05-19T03:11:18.703Z,3.10
2023-05-19T03:13:46.334Z,5.80
2023-05-19T03:16:14.256Z,4.25
2023-05-19T03:18:41.964Z,3.15
2023-05-19T03:21:09.247Z,3.25
2023-05-19T03:23:36.918Z,4.40
2023-05-19T03:26:04.571Z,4.30
2023-05-19T03:28:32.914Z,3.97
2023-05-19T03:31:00.526Z,3.03
2023-05-19T03:33:34.093Z,3.97
2023-05-19T03:36:02.101Z,5.20
2023-05-19T03:38:33.695Z,3.33
2023-05-19T03:41:01.391Z,3.97
2023-05-19T03:43:28.641Z,5.13
2023-05-19T03:46:00.888Z,3.03
2023-05-19T03:48:47.118Z,4.82
2023-05-19T03:51:20.177Z,3.42
2023-05-19T03:53:50.491Z,8.55
2023-05-19T03:56:19.192Z,4.90
2023-05-19T03:58:47.242Z,4.38
2023-05-19T04:01:15.788Z,5.60
2023-05-19T04:03:43.488Z,4.72
2023-05-19T04:06:11.029Z,7.88
2023-05-19T04:08:39.405Z,7.78
2023-05-19T04:11:06.660Z,6.13
2023-05-19T04:13:34.666Z,8.82
2023-05-19T04:16:02.506Z,4.40
2023-05-19T04:18:29.923Z,7.15
2023-05-19T04:20:57.312Z,9.65
2023-05-19T04:23:26.134Z,7.18
2023-05-19T04:25:54.679Z,4.88
2023-05-19T04:28:24.082Z,6.25
2023-05-19T04:30:51.837Z,5.78
2023-05-19T04:33:20.221Z,9.70
2023-05-19T04:35:48.011Z,4.90
2023-05-19T04:38:19.099Z,6.57
2023-05-19T04:40:50.487Z,8.63
2023-05-19T04:43:19.518Z,4.47
2023-05-19T04:45:47.723Z,4.65
2023-05-19T04:48:15.705Z,6.82
2023-05-19T04:50:43.032Z,4.35
2023-05-19T04:53:11.731Z,7.53
2023-05-19T04:55:39.605Z,5.60
2023-05-19T04:58:08.214Z,7.60
2023-05-19T05:00:37.768Z,7.93
2023-05-19T05:03:08.428Z,15.70
2023-05-19T05:05:35.709Z,7.28
2023-05-19T05:08:03.528Z,10.75
2023-05-19T05:10:36.233Z,10.60
2023-05-19T05:13:03.832Z,6.90
2023-05-19T05:15:31.927Z,7.53
2023-05-19T05:18:02.173Z,6.25
2023-05-19T05:20:31.530Z,7.13
2023-05-19T05:22:59.413Z,8.30
2023-05-19T05:25:27.606Z,10.68
2023-05-19T05:27:55.180Z,7.22
2023-05-19T05:30:23.992Z,6.82
2023-05-19T05:32:52.751Z,7.93
2023-05-19T05:35:33.508Z,8.05
2023-05-19T05:38:02.054Z,10.57
2023-05-19T05:40:29.559Z,8.18
2023-05-19T05:42:59.132Z,7.40
2023-05-19T05:45:29.225Z,7.07
2023-05-19T05:47:58.245Z,8.27
2023-05-19T05:50:26.015Z,8.52
2023-05-19T05:52:56.110Z,9.32
2023-05-19T05:55:24.905Z,8.43
2023-05-19T05:57:52.328Z,7.47
2023-05-19T06:00:22.573Z,7.63
2023-05-19T06:02:53.268Z,8.93
2023-05-19T06:05:21.365Z,11.30
2023-05-19T06:07:49.417Z,8.90
2023-05-19T06:10:23.741Z,10.70
2023-05-19T06:12:51.554Z,7.75
2023-05-19T06:15:18.857Z,6.88
2023-05-19T06:17:49.099Z,8.07
2023-05-19T06:20:16.647Z,10.60
2023-05-19T06:22:44.384Z,9.68
2023-05-19T06:25:12.164Z,9.85
2023-05-19T06:27:39.554Z,13.40
2023-05-19T06:30:08.877Z,10.43
2023-05-19T06:32:46.347Z,10.90
2023-05-19T06:35:13.825Z,11.45
2023-05-19T06:37:41.316Z,11.82
2023-05-19T06:40:13.380Z,10.30
2023-05-19T06:42:42.532Z,11.70
2023-05-19T06:45:39.066Z,11.18
2023-05-19T06:48:07.761Z,13.30
2023-05-19T06:50:36.210Z,13.13
2023-05-19T06:53:03.611Z,13.40
2023-05-19T06:55:30.962Z,14.02
2023-05-19T06:57:58.398Z,18.88
2023-05-19T07:00:26.037Z,13.35
2023-05-19T07:02:54.164Z,13.15
2023-05-19T07:05:22.015Z,15.52
2023-05-19T07:07:53.578Z,15.18
2023-05-19T07:10:24.872Z,13.07
2023-05-19T07:12:53.394Z,12.73
2023-05-19T07:15:23.300Z,15.63
2023-05-19T07:17:51.029Z,14.15
2023-05-19T07:20:20.031Z,16.05
2023-05-19T07:22:47.769Z,12.55
2023-05-19T07:25:15.892Z,12.68
2023-05-19T07:27:47.276Z,13.40
2023-05-19T07:30:14.953Z,15.68
2023-05-19T07:32:42.405Z,15.82
2023-05-19T07:35:09.765Z,13.82
2023-05-19T07:37:37.049Z,14.93
2023-05-19T07:40:05.297Z,12.73
2023-05-19T07:42:32.885Z,14.07
2023-05-19T07:45:00.361Z,12.23
2023-05-19T07:47:27.859Z,14.27
2023-05-19T07:49:55.138Z,15.65
2023-05-19T07:52:22.323Z,13.90
2023-05-19T07:54:49.607Z,15.90
2023-05-19T07:57:16.926Z,15.90
2023-05-19T07:59:44.384Z,15.13
2023-05-19T08:02:11.717Z,17.42
2023-05-19T08:04:39.264Z,16.10
2023-05-19T08:07:06.523Z,13.90
2023-05-19T08:09:33.638Z,14.45
2023-05-19T08:12:01.889Z,16.52
2023-05-19T08:14:29.196Z,20.08
2023-05-19T08:16:56.537Z,17.88
2023-05-19T08:19:23.833Z,19.13
2023-05-19T08:21:51.331Z,16.08
2023-05-19T08:24:18.552Z,18.25
2023-05-19T08:26:46.123Z,14.10
2023-05-19T08:29:13.560Z,19.75
2023-05-19T08:31:41.123Z,16.13
2023-05-19T08:34:08.488Z,23.67
2023-05-19T08:36:35.718Z,14.90
2023-05-19T08:39:03.467Z,17.13
2023-05-19T08:41:30.744Z,14.88
2023-05-19T08:43:58.061Z,16.65
2023-05-19T08:46:25.931Z,14.88
2023-05-19T08:48:59.341Z,13.73
2023-05-19T08:52:10.337Z,12.00
2023-05-19T08:54:48.520Z,14.43
2023-05-19T08:57:16.141Z,19.30
2023-05-19T08:59:44.335Z,16.38
2023-05-19T09:02:14.225Z,11.65
2023-05-19T09:04:46.117Z,13.88
2023-05-19T09:07:17.128Z,13.88
2023-05-19T09:09:44.699Z,12.48
2023-05-19T09:12:12.279Z,12.63
2023-05-19T09:14:40.105Z,14.65
2023-05-19T09:17:07.357Z,14.43
2023-05-19T09:19:35.014Z,15.30
2023-05-19T09:22:06.681Z,11.52
2023-05-19T09:24:34.552Z,12.20
2023-05-19T09:27:02.345Z,11.82
2023-05-19T09:29:30.708Z,10.68
2023-05-19T09:32:04.401Z,10.73
2023-05-19T09:34:31.776Z,9.68
2023-05-19T09:37:00.068Z,6.18
2023-05-19T09:39:28.982Z,9.80
2023-05-19T09:41:58.943Z,9.77
2023-05-19T09:44:31.243Z,9.85
2023-05-19T09:46:59.037Z,8.35
2023-05-19T09:49:31.429Z,12.93
2023-05-19T09:52:00.702Z,7.13
2023-05-19T09:54:29.808Z,7.60
2023-05-19T09:57:02.322Z,10.15
2023-05-19T09:59:33.330Z,7.70
2023-05-19T10:02:03.172Z,12.02
2023-05-19T10:04:31.840Z,6.10
2023-05-19T10:07:00.228Z,9.18
2023-05-19T10:09:30.057Z,5.18
2023-05-19T10:11:59.232Z,10.70
2023-05-19T10:14:28.951Z,11.38
2023-05-19T10:16:58.880Z,6.70
2023-05-19T10:19:28.648Z,7.88
2023-05-19T10:21:57.141Z,4.90
2023-05-19T10:24:24.622Z,7.13
2023-05-19T10:27:02.677Z,6.95
2023-05-19T10:29:32.890Z,3.25
2023-05-19T10:32:06.940Z,5.45
2023-05-19T10:34:53.645Z,6.57
2023-05-19T10:37:46.955Z,24.83
2023-05-19T10:40:44.150Z,5.20
2023-05-19T10:43:50.194Z,7.75
2023-05-19T10:46:17.882Z,4.90
2023-05-19T10:51:38.905Z,8.02
2023-05-19T10:54:14.404Z,8.48
2023-05-19T10:56:46.492Z,2.83
2023-05-19T10:59:32.467Z,6.93
2023-05-19T11:02:09.524Z,4.93
2023-05-19T11:04:54.537Z,4.93
2023-05-19T11:07:44.058Z,5.97
2023-05-19T11:10:23.781Z,7.88
2023-05-19T11:12:52.335Z,4.55
2023-05-19T11:15:25.747Z,7.75
2023-05-19T11:17:53.985Z,9.00
2023-05-19T11:20:30.177Z,5.80
2023-05-19T11:23:20.374Z,5.03
2023-05-19T11:25:49.995Z,4.95
2023-05-19T11:28:26.355Z,5.32
2023-05-19T11:30:57.955Z,2.72
2023-05-19T11:33:29.549Z,10.20
2023-05-19T11:36:00.333Z,6.40
2023-05-19T11:38:31.547Z,6.15
2023-05-19T11:40:58.868Z,4.53
2023-05-19T11:43:26.782Z,4.90
2023-05-19T11:45:55.346Z,4.55
2023-05-19T11:48:23.422Z,4.20
2023-05-19T11:50:51.145Z,4.72
2023-05-19T11:53:20.191Z,5.35
2023-05-19T11:55:49.009Z,9.05
2023-05-19T11:58:20.061Z,9.80
2023-05-19T12:00:48.064Z,6.82
2023-05-19T12:03:15.977Z,5.25
2023-05-19T12:05:49.374Z,5.70
2023-05-19T12:08:20.084Z,7.45
2023-05-19T12:10:53.320Z,8.55
2023-05-19T12:13:22.894Z,7.28
2023-05-19T12:15:52.449Z,8.93
2023-05-19T12:18:19.812Z,5.38
2023-05-19T12:20:47.581Z,5.13
2023-05-19T12:23:15.078Z,3.53
2023-05-19T12:25:42.522Z,5.40
2023-05-19T12:28:10.035Z,5.30
2023-05-19T12:30:37.937Z,4.70
2023-05-19T12:33:08.612Z,5.05
2023-05-19T12:35:38.189Z,4.20
2023-05-19T12:38:07.212Z,7.40
2023-05-19T12:40:36.305Z,4.68
2023-05-19T12:43:04.797Z,5.72
2023-05-19T12:45:42.657Z,10.18
2023-05-19T12:48:14.150Z,6.13
2023-05-19T12:50:42.584Z,7.43
2023-05-19T12:53:15.154Z,7.43
2023-05-19T12:55:44.433Z,11.38
2023-05-19T12:58:12.579Z,4.25
2023-05-19T13:00:49.967Z,2.20
2023-05-19T13:03:19.091Z,4.18
2023-05-19T13:05:48.829Z,5.15
2023-05-19T13:08:18.722Z,6.93
2023-05-19T13:10:47.321Z,3.28
2023-05-19T13:13:14.854Z,4.15
2023-05-19T13:15:44.760Z,8.00
2023-05-19T13:18:13.708Z,4.03
2023-05-19T13:20:46.010Z,4.10
2023-05-19T13:23:14.467Z,6.88
2023-05-19T13:25:43.307Z,7.75
2023-05-19T13:28:11.320Z,2.95
2023-05-19T13:30:40.440Z,5.97
2023-05-19T13:33:08.025Z,6.10
2023-05-19T13:35:39.244Z,7.20
2023-05-19T13:38:08.503Z,6.35
2023-05-19T13:40:48.884Z,3.20
2023-05-19T13:43:16.353Z,2.75
2023-05-19T13:45:44.706Z,6.70
2023-05-19T13:48:12.442Z,5.00
2023-05-19T13:50:40.379Z,5.93
2023-05-19T13:53:08.557Z,5.13
2023-05-19T13:55:35.835Z,2.92
2023-05-19T13:58:03.697Z,4.95
2023-05-19T14:00:32.365Z,3.38
2023-05-19T14:03:00.786Z,2.83
2023-05-19T14:05:29.230Z,9.63
2023-05-19T14:07:57.137Z,5.15
2023-05-19T14:10:24.549Z,5.20
2023-05-19T14:13:29.034Z,6.88
2023-05-19T14:15:46.995Z,7.70
2023-05-19T14:18:16.027Z,8.75
2023-05-19T14:20:46.392Z,5.93
2023-05-19T14:23:15.660Z,3.90
2023-05-19T14:25:43.466Z,3.50
2023-05-19T14:28:20.183Z,5.90
2023-05-19T14:30:50.658Z,4.13
2023-05-19T14:33:19.672Z,6.07
2023-05-19T14:35:47.276Z,3.30
2023-05-19T14:38:17.599Z,4.00
2023-05-19T14:40:45.517Z,3.85
2023-05-19T14:43:15.351Z,2.22
2023-05-19T14:45:42.774Z,5.30
2023-05-19T14:48:12.101Z,4.47
2023-05-19T14:53:14.671Z,3.45
2023-05-19T14:55:42.463Z,4.72
2023-05-19T14:58:23.620Z,3.20
2023-05-19T15:00:57.938Z,6.35
2023-05-19T15:03:25.388Z,4.13
2023-05-19T15:05:52.952Z,5.65
2023-05-19T15:08:20.129Z,4.25
2023-05-19T15:10:50.857Z,2.17
2023-05-19T15:13:19.162Z,3.17
2023-05-19T15:15:46.585Z,5.47
2023-05-19T15:18:16.298Z,12.40
2023-05-19T15:20:44.129Z,4.25
2023-05-19T15:23:11.338Z,3.63
2023-05-19T15:25:39.040Z,5.00
2023-05-19T15:28:06.336Z,2.35
2023-05-19T15:30:33.598Z,5.05
2023-05-19T15:33:01.413Z,3.45
2023-05-19T15:35:28.818Z,2.03
2023-05-19T15:37:56.279Z,2.97
2023-05-19T15:40:25.870Z,2.53
2023-05-19T15:42:53.112Z,4.65
2023-05-19T15:45:20.583Z,5.05
2023-05-19T15:47:48.923Z,6.47
2023-05-19T15:50:16.961Z,3.30
2023-05-19T15:52:44.443Z,2.78
2023-05-19T15:55:11.696Z,2.92
2023-05-19T15:57:38.854Z,2.88
2023-05-19T16:00:07.002Z,5.10
2023-05-19T16:02:37.954Z,3.17
2023-05-19T16:05:05.720Z,3.40
2023-05-19T16:07:33.324Z,4.82
2023-05-19T16:10:02.908Z,5.43
2023-05-19T16:12:32.465Z,3.85
2023-05-19T16:14:59.892Z,2.00
2023-05-19T16:17:27.302Z,3.08
2023-05-19T16:19:54.764Z,3.25
2023-05-19T16:22:24.996Z,4.20
2023-05-19T16:24:52.857Z,2.95
2023-05-19T16:27:20.290Z,6.68
2023-05-19T16:29:47.853Z,4.13
2023-05-19T16:32:15.229Z,4.72
2023-05-19T16:34:42.414Z,3.25
2023-05-19T16:37:12.284Z,13.77
2023-05-19T16:39:40.459Z,2.47
2023-05-19T16:42:10.898Z,5.95
2023-05-19T16:44:38.301Z,2.17
2023-05-19T16:47:05.849Z,8.55
2023-05-19T16:49:34.506Z,3.97
2023-05-19T16:52:02.223Z,6.57
2023-05-19T16:54:30.264Z,2.97
2023-05-19T16:56:58.236Z,1.85
2023-05-19T16:59:26.167Z,5.28
2023-05-19T17:02:01.507Z,5.10
2023-05-19T17:04:35.445Z,3.70
2023-05-19T17:07:03.531Z,4.03
2023-05-19T17:26:19.501Z,5.45
2023-05-19T17:28:47.068Z,2.40
2023-05-19T17:31:18.209Z,4.68
2023-05-19T17:33:45.992Z,6.95
2023-05-19T17:36:14.522Z,5.43
2023-05-19T17:38:42.158Z,7.35
2023-05-19T17:41:10.288Z,6.10
2023-05-19T17:43:41.904Z,2.67
2023-05-19T17:46:09.755Z,7.68
2023-05-19T17:48:37.424Z,3.90
2023-05-19T17:51:09.024Z,4.75
2023-05-19T17:53:37.212Z,4.15
2023-05-19T17:56:09.764Z,4.88
2023-05-19T17:58:37.338Z,2.28
2023-05-19T18:01:05.190Z,5.15
2023-05-19T18:03:36.053Z,3.13
2023-05-19T18:06:03.933Z,6.15
2023-05-19T18:08:32.379Z,3.90
2023-05-19T18:11:03.382Z,2.92
2023-05-19T18:13:33.704Z,4.93
2023-05-19T18:16:01.161Z,6.70
2023-05-19T18:18:28.443Z,3.13
2023-05-19T18:20:55.865Z,12.10
2023-05-19T18:23:23.622Z,7.35
2023-05-19T18:25:53.763Z,5.35
2023-05-19T18:28:21.483Z,1.80
2023-05-19T18:30:58.927Z,4.55
2023-05-19T18:33:31.692Z,4.63
2023-05-19T18:36:00.359Z,6.03
2023-05-19T18:38:27.738Z,5.35
2023-05-19T18:41:00.008Z,3.03
2023-05-19T18:43:32.627Z,1.63
2023-05-19T18:46:01.543Z,5.15
2023-05-19T18:48:34.572Z,4.13
2023-05-19T18:51:03.935Z,3.55
2023-05-19T18:53:37.333Z,5.50
2023-05-19T18:56:12.789Z,5.18
2023-05-19T18:58:40.555Z,2.10
2023-05-19T19:01:13.405Z,4.13
2023-05-19T19:03:42.187Z,3.78
2023-05-19T19:06:09.761Z,1.73
2023-05-19T19:08:37.532Z,1.85
2023-05-19T19:11:13.923Z,2.47
2023-05-19T19:13:41.861Z,6.50
2023-05-19T19:16:14.302Z,3.92
2023-05-19T19:18:45.452Z,6.93
2023-05-19T19:21:12.910Z,3.17
2023-05-19T19:23:40.582Z,5.28
2023-05-19T19:26:12.685Z,5.35
2023-05-19T19:28:39.963Z,2.25
2023-05-19T19:31:08.216Z,3.13
2023-05-19T19:33:41.630Z,3.10
2023-05-19T19:36:09.325Z,4.50
2023-05-19T19:38:36.781Z,7.03
2023-05-19T19:41:07.032Z,5.15
2023-05-19T19:43:36.747Z,2.92
2023-05-19T19:46:04.924Z,3.72
2023-05-19T19:48:38.285Z,1.80
2023-05-19T19:51:05.544Z,3.80
2023-05-19T19:53:34.848Z,1.50
2023-05-19T19:56:06.158Z,4.63
2023-05-19T19:58:36.127Z,3.33
2023-05-19T20:01:09.043Z,3.78
2023-05-19T20:03:38.516Z,2.13
2023-05-19T20:06:07.319Z,3.92
2023-05-19T20:08:34.646Z,4.10
2023-05-19T20:11:06.147Z,2.03
2023-05-19T20:13:33.760Z,2.65
2023-05-19T20:16:01.642Z,4.15
2023-05-19T20:18:30.205Z,1.38
2023-05-19T20:21:04.325Z,2.10
2023-05-19T20:23:34.955Z,1.83
2023-05-19T20:26:10.700Z,2.22
2023-05-19T20:28:42.638Z,3.15
2023-05-19T20:31:09.994Z,6.07
2023-05-19T20:33:40.570Z,1.83
2023-05-19T20:36:14.034Z,1.73
2023-05-19T20:38:41.815Z,2.58
2023-05-19T20:41:09.293Z,3.13
2023-05-19T20:43:40.250Z,4.40
2023-05-19T20:46:07.845Z,3.53
2023-05-19T20:48:36.304Z,2.47
2023-05-19T20:51:04.436Z,4.85
2023-05-19T20:53:31.889Z,2.20
2023-05-19T20:55:59.417Z,1.85
2023-05-19T20:58:30.499Z,2.95
2023-05-19T21:01:00.579Z,2.75
2023-05-19T21:03:28.679Z,3.55
2023-05-19T21:06:05.710Z,2.70
2023-05-19T21:08:35.556Z,3.97
2023-05-19T21:13:34.019Z,1.65
2023-05-19T21:16:04.050Z,2.22
2023-05-19T21:18:31.361Z,5.88
2023-05-19T21:21:04.114Z,2.70
2023-05-19T21:23:31.361Z,1.95
2023-05-19T21:26:00.355Z,3.03
2023-05-19T21:28:27.606Z,1.65
2023-05-19T21:30:54.909Z,1.67
2023-05-19T21:33:24.904Z,4.53
2023-05-19T21:35:52.375Z,5.45
2023-05-19T21:38:23.839Z,3.03
2023-05-19T21:40:52.717Z,2.15
2023-05-19T21:43:20.398Z,2.33
2023-05-19T21:45:47.561Z,2.65
2023-05-19T21:48:17.737Z,2.60
2023-05-19T21:50:46.152Z,4.18
2023-05-19T21:53:15.971Z,2.75
2023-05-19T21:55:43.690Z,1.58
2023-05-19T21:58:11.299Z,5.40
2023-05-19T22:00:39.025Z,2.35
2023-05-19T22:03:06.854Z,2.53
2023-05-19T22:05:35.515Z,2.63
2023-05-19T22:08:02.945Z,1.70
2023-05-19T22:10:30.097Z,4.22
2023-05-19T22:12:59.214Z,2.33
2023-05-19T22:15:29.401Z,14.60
2023-05-19T22:17:59.507Z,1.85
2023-05-19T22:20:26.980Z,4.30
2023-05-19T22:22:54.245Z,2.50
2023-05-19T22:25:21.518Z,1.90
2023-05-19T22:27:48.809Z,4.55
2023-05-19T22:30:19.123Z,3.72
2023-05-19T22:32:49.864Z,4.72
2023-05-19T22:35:17.951Z,2.78
2023-05-19T22:37:45.279Z,2.85
2023-05-19T22:40:13.300Z,5.00
2023-05-19T22:42:41.150Z,3.83
2023-05-19T22:45:09.423Z,4.55
2023-05-19T22:47:36.902Z,3.55
2023-05-19T22:50:04.598Z,3.10
2023-05-19T22:52:31.833Z,5.70
2023-05-19T22:54:59.106Z,3.83
2023-05-19T22:57:29.725Z,2.28
2023-05-19T22:59:57.035Z,1.40
2023-05-19T23:02:24.570Z,4.13
2023-05-19T23:04:51.850Z,4.38
2023-05-19T23:07:19.140Z,5.40
2023-05-19T23:09:46.485Z,3.95
2023-05-19T23:12:13.970Z,3.67
2023-05-19T23:14:41.397Z,2.55
2023-05-19T23:17:08.806Z,2.55
2023-05-19T23:19:37.036Z,3.13
2023-05-19T23:22:04.464Z,8.13
2023-05-19T23:24:31.924Z,3.20
2023-05-19T23:26:59.254Z,3.33
2023-05-19T23:29:26.610Z,3.63
2023-05-19T23:31:54.026Z,4.30
2023-05-19T23:34:21.343Z,5.65
2023-05-19T23:36:48.605Z,2.92
2023-05-19T23:39:15.951Z,4.05
2023-05-19T23:41:43.286Z,3.20
2023-05-19T23:44:10.845Z,2.78
2023-05-19T23:46:38.053Z,3.03
2023-05-19T23:49:05.524Z,2.92
2023-05-19T23:51:32.916Z,4.20
2023-05-19T23:54:00.120Z,1.52
2023-05-19T23:56:27.464Z,1.55
2023-05-19T23:58:54.817Z,1.50
